Impacts TAF Board INFO
FOR SITUATIONAL AWARENESS. NOT TO BE USED FOR FLIGHT PLANNING PURPOSES.
IDs:

KLAS - Las Vegas/McCarran I, NV, US

Issued at 1436 UTC 19 Nov 2017
Updated at 1549 UTC 19 Nov 2017
Potential Impact None Slight Moderate High
Time<<20/04Z 20/05Z 20/06Z 20/07Z 20/08Z 20/09Z 20/10Z 20/11Z 20/12Z 20/13Z 20/14Z 20/15Z 20/16Z>>
Type PRVL PRVL PRVL PRVL PRVL PRVL PRVL PRVL PRVL PRVL PRVL PRVL PRVL
VIS >6 >6 >6 >6 >6 >6 >6 >6 >6 >6 >6 >6 >6
CIG 250 250 250 250 250 250 250 250 250 250 250 250 250
Cover BKN BKN BKN BKN BKN BKN BKN BKN BKN BKN BKN BKN BKN
FltCat VFR VFR VFR VFR VFR VFR VFR VFR VFR VFR VFR VFR VFR
WX -- -- -- -- -- -- -- -- -- -- -- -- --
WDir 210 210 210 210 210 210 210 210 210 210 210 210 VRB
WSpd 6 6 6 6 6 6 6 6 6 6 6 6 5
WGst -- -- -- -- -- -- -- -- -- -- -- -- --

Raw TAF
KLAS 191436Z 1915/2018 VRB05KT P6SM SCT250
  FM200300 21006KT P6SM BKN250
  FM201600 VRB05KT P6SM BKN250


METAR Board
Radar Display
Forecast Discussion

FOR SITUATIONAL AWARENESS. NOT TO BE USED FOR FLIGHT PLANNING PURPOSES.